Opa-locka, FL

2:26 AM EDT on July 27, 2016 (GMT -0400)
Opa Locka | | Change Station

Elev 10 ft 25.91 °N, 80.28 °W | Updated 33 minutes ago

Partly Cloudy
Partly Cloudy
79 °F
Feels Like 79 °F
N
0
Wind Variable Wind from North

Today
High -- | Low -- °F
--% Chance of Precip.
Yesterday
High -- | Low -- °F
Precip. -- in
Pressure 30.07 in
Visibility 10.0 miles
Clouds Few 10000 ft
Dew Point 75 °F
Humidity 88%
Rainfall 0.00 in
Snow Depth Not available.
6:45 AM 8:09 PM
Waning Gibbous, 46% visible
METAR KOPF 270553Z AUTO 00000KT 10SM FEW100 26/24 A3006 RMK AO2 SLP181 60004 T02610239 10300 20261 58007
Pressure 30.07 in
Visibility 10.0 miles
Clouds Few 10000 ft
Dew Point 75 °F
Humidity 88%
Rainfall 0.00 in
Snow Depth Not available.
6:45 AM 8:09 PM
Waning Gibbous, 46% visible
METAR KOPF 270553Z AUTO 00000KT 10SM FEW100 26/24 A3006 RMK AO2 SLP181 60004 T02610239 10300 20261 58007

10-Day Weather Forecast

Almanac

Astronomy

Jul. 27, 2016 Rise Set
Actual Time
Civil Twilight
Nautical Twilight
Astronomical Twilight
Moon
Length of Visible Light
Length of Day
Tomorrow will be .
, % of the Moon is Illuminated

Today's Extremes

State Highs State Lows

Community

WunderPhotos

Upload Photos

1,927,818 photos uploaded!

WunderBlog® & News

Nearby

Air Quality

  Air Quality AQ Index Pollutant
Not available.

Snow Depth

Station Depth Elevation

Earthquake Activity

City Distance Mag. Time & Date
Minimum magnitude displayed is 2.5.

Coastal Water Temperatures

Place Temperature

Stations

Nearby Weather Stations

Station Location Temp. Windchill Dew Point Humidity Wind Precip. Elev Updated Type
                   

Watches & Warnings

There are currently no watches in effect.